sensor_id;sensor_type;location;lat;lon;timestamp;temperature;humidity
38325;DHT22;24126;52.672;13.622;2023-02-05T00:01:34;3.40;60.30
38325;DHT22;24126;52.672;13.622;2023-02-05T00:04:02;3.40;60.40
38325;DHT22;24126;52.672;13.622;2023-02-05T00:06:29;3.40;60.60
38325;DHT22;24126;52.672;13.622;2023-02-05T00:08:58;3.40;60.70
38325;DHT22;24126;52.672;13.622;2023-02-05T00:11:25;3.30;60.80
38325;DHT22;24126;52.672;13.622;2023-02-05T00:13:53;3.30;60.90
38325;DHT22;24126;52.672;13.622;2023-02-05T00:16:20;3.30;61.00
38325;DHT22;24126;52.672;13.622;2023-02-05T00:18:48;3.30;61.00
38325;DHT22;24126;52.672;13.622;2023-02-05T00:21:15;3.30;61.00
38325;DHT22;24126;52.672;13.622;2023-02-05T00:23:46;3.30;61.20
38325;DHT22;24126;52.672;13.622;2023-02-05T00:26:13;3.20;61.20
38325;DHT22;24126;52.672;13.622;2023-02-05T00:28:42;3.20;61.20
38325;DHT22;24126;52.672;13.622;2023-02-05T00:31:10;3.20;61.20
38325;DHT22;24126;52.672;13.622;2023-02-05T00:33:38;3.20;61.20
38325;DHT22;24126;52.672;13.622;2023-02-05T00:36:06;3.20;61.30
38325;DHT22;24126;52.672;13.622;2023-02-05T00:38:34;3.10;61.40
38325;DHT22;24126;52.672;13.622;2023-02-05T00:41:02;3.10;61.50
38325;DHT22;24126;52.672;13.622;2023-02-05T00:43:32;3.10;61.50
38325;DHT22;24126;52.672;13.622;2023-02-05T00:45:59;3.10;61.50
38325;DHT22;24126;52.672;13.622;2023-02-05T00:48:27;3.10;61.70
38325;DHT22;24126;52.672;13.622;2023-02-05T00:50:54;3.10;61.70
38325;DHT22;24126;52.672;13.622;2023-02-05T00:53:22;3.10;61.60
38325;DHT22;24126;52.672;13.622;2023-02-05T00:55:50;3.00;61.80
38325;DHT22;24126;52.672;13.622;2023-02-05T00:58:17;3.00;61.80
38325;DHT22;24126;52.672;13.622;2023-02-05T01:00:44;3.00;61.80
38325;DHT22;24126;52.672;13.622;2023-02-05T01:03:12;3.00;62.60
38325;DHT22;24126;52.672;13.622;2023-02-05T01:05:40;3.00;62.10
38325;DHT22;24126;52.672;13.622;2023-02-05T01:08:08;2.90;62.30
38325;DHT22;24126;52.672;13.622;2023-02-05T01:10:35;2.90;62.20
38325;DHT22;24126;52.672;13.622;2023-02-05T01:13:03;2.90;62.20
38325;DHT22;24126;52.672;13.622;2023-02-05T01:15:31;2.90;62.20
38325;DHT22;24126;52.672;13.622;2023-02-05T01:17:58;2.90;62.30
38325;DHT22;24126;52.672;13.622;2023-02-05T01:20:25;2.90;62.40
38325;DHT22;24126;52.672;13.622;2023-02-05T01:22:52;2.80;62.30
38325;DHT22;24126;52.672;13.622;2023-02-05T01:25:35;2.80;62.40
38325;DHT22;24126;52.672;13.622;2023-02-05T01:28:02;2.80;62.40
38325;DHT22;24126;52.672;13.622;2023-02-05T01:30:30;2.80;62.50
38325;DHT22;24126;52.672;13.622;2023-02-05T01:32:57;2.70;62.40
38325;DHT22;24126;52.672;13.622;2023-02-05T01:35:24;2.70;62.40
38325;DHT22;24126;52.672;13.622;2023-02-05T01:40:44;2.60;62.70
38325;DHT22;24126;52.672;13.622;2023-02-05T01:43:11;2.60;62.80
38325;DHT22;24126;52.672;13.622;2023-02-05T01:45:43;2.60;63.70
38325;DHT22;24126;52.672;13.622;2023-02-05T01:48:16;2.60;63.80
38325;DHT22;24126;52.672;13.622;2023-02-05T01:50:45;2.50;63.00
38325;DHT22;24126;52.672;13.622;2023-02-05T01:53:15;2.50;63.00
38325;DHT22;24126;52.672;13.622;2023-02-05T01:55:55;2.50;63.10
38325;DHT22;24126;52.672;13.622;2023-02-05T01:58:23;2.40;63.10
38325;DHT22;24126;52.672;13.622;2023-02-05T02:00:52;2.40;63.10
38325;DHT22;24126;52.672;13.622;2023-02-05T02:03:20;2.40;63.10
38325;DHT22;24126;52.672;13.622;2023-02-05T02:05:48;2.40;63.10
38325;DHT22;24126;52.672;13.622;2023-02-05T02:08:15;2.40;63.20
38325;DHT22;24126;52.672;13.622;2023-02-05T02:10:42;2.30;63.10
38325;DHT22;24126;52.672;13.622;2023-02-05T02:13:10;2.30;63.20
38325;DHT22;24126;52.672;13.622;2023-02-05T02:18:30;2.30;63.20
38325;DHT22;24126;52.672;13.622;2023-02-05T02:26:41;2.20;63.60
38325;DHT22;24126;52.672;13.622;2023-02-05T02:29:14;2.10;63.90
38325;DHT22;24126;52.672;13.622;2023-02-05T02:31:45;2.10;64.10
38325;DHT22;24126;52.672;13.622;2023-02-05T02:34:17;2.10;64.20
38325;DHT22;24126;52.672;13.622;2023-02-05T02:39:41;2.10;63.90
38325;DHT22;24126;52.672;13.622;2023-02-05T02:44:51;2.10;63.80
38325;DHT22;24126;52.672;13.622;2023-02-05T02:47:23;2.00;63.70
38325;DHT22;24126;52.672;13.622;2023-02-05T02:49:55;2.00;63.80
38325;DHT22;24126;52.672;13.622;2023-02-05T02:52:23;2.00;63.80
38325;DHT22;24126;52.672;13.622;2023-02-05T02:54:55;2.00;64.40
38325;DHT22;24126;52.672;13.622;2023-02-05T02:57:26;2.00;64.10
38325;DHT22;24126;52.672;13.622;2023-02-05T02:59:54;2.00;64.10
38325;DHT22;24126;52.672;13.622;2023-02-05T03:02:24;1.90;64.20
38325;DHT22;24126;52.672;13.622;2023-02-05T03:04:55;1.90;64.30
38325;DHT22;24126;52.672;13.622;2023-02-05T03:07:25;1.90;64.60
38325;DHT22;24126;52.672;13.622;2023-02-05T03:09:56;1.90;64.50
38325;DHT22;24126;52.672;13.622;2023-02-05T03:12:26;1.90;64.50
38325;DHT22;24126;52.672;13.622;2023-02-05T03:14:54;1.90;64.30
38325;DHT22;24126;52.672;13.622;2023-02-05T03:17:28;1.90;64.40
38325;DHT22;24126;52.672;13.622;2023-02-05T03:19:58;1.90;64.40
38325;DHT22;24126;52.672;13.622;2023-02-05T03:22:27;1.90;64.40
38325;DHT22;24126;52.672;13.622;2023-02-05T03:24:55;1.90;64.20
38325;DHT22;24126;52.672;13.622;2023-02-05T03:27:23;1.80;64.00
38325;DHT22;24126;52.672;13.622;2023-02-05T03:29:59;1.80;64.00
38325;DHT22;24126;52.672;13.622;2023-02-05T03:37:50;1.80;64.30
38325;DHT22;24126;52.672;13.622;2023-02-05T03:43:16;1.80;64.20
38325;DHT22;24126;52.672;13.622;2023-02-05T03:46:03;1.80;64.30
38325;DHT22;24126;52.672;13.622;2023-02-05T03:48:36;1.70;64.30
38325;DHT22;24126;52.672;13.622;2023-02-05T03:56:59;1.70;64.50
38325;DHT22;24126;52.672;13.622;2023-02-05T03:59:33;1.70;64.60
38325;DHT22;24126;52.672;13.622;2023-02-05T04:02:02;1.70;64.70
38325;DHT22;24126;52.672;13.622;2023-02-05T04:04:32;1.70;64.60
38325;DHT22;24126;52.672;13.622;2023-02-05T04:07:00;1.70;64.60
38325;DHT22;24126;52.672;13.622;2023-02-05T04:09:28;1.70;64.80
38325;DHT22;24126;52.672;13.622;2023-02-05T04:11:56;1.70;64.90
38325;DHT22;24126;52.672;13.622;2023-02-05T04:16:56;1.70;65.20
38325;DHT22;24126;52.672;13.622;2023-02-05T04:19:25;1.70;65.20
38325;DHT22;24126;52.672;13.622;2023-02-05T04:21:55;1.70;65.20
38325;DHT22;24126;52.672;13.622;2023-02-05T04:24:35;1.70;65.20
38325;DHT22;24126;52.672;13.622;2023-02-05T04:27:03;1.80;65.20
38325;DHT22;24126;52.672;13.622;2023-02-05T04:29:32;1.80;65.00
38325;DHT22;24126;52.672;13.622;2023-02-05T04:32:00;1.80;64.80
38325;DHT22;24126;52.672;13.622;2023-02-05T04:34:27;1.80;64.90
38325;DHT22;24126;52.672;13.622;2023-02-05T04:36:58;1.80;65.10
38325;DHT22;24126;52.672;13.622;2023-02-05T04:39:35;1.80;65.30
38325;DHT22;24126;52.672;13.622;2023-02-05T04:42:02;1.80;65.70
38325;DHT22;24126;52.672;13.622;2023-02-05T04:44:30;1.80;65.90
38325;DHT22;24126;52.672;13.622;2023-02-05T04:46:57;1.80;66.20
38325;DHT22;24126;52.672;13.622;2023-02-05T04:49:24;1.70;66.50
38325;DHT22;24126;52.672;13.622;2023-02-05T04:51:51;1.70;66.70
38325;DHT22;24126;52.672;13.622;2023-02-05T04:54:25;1.70;66.80
38325;DHT22;24126;52.672;13.622;2023-02-05T04:56:53;1.70;67.00
38325;DHT22;24126;52.672;13.622;2023-02-05T04:59:20;1.80;67.10
38325;DHT22;24126;52.672;13.622;2023-02-05T05:01:47;1.80;67.10
38325;DHT22;24126;52.672;13.622;2023-02-05T05:04:15;1.80;67.30
38325;DHT22;24126;52.672;13.622;2023-02-05T05:06:42;1.80;67.20
38325;DHT22;24126;52.672;13.622;2023-02-05T05:09:09;1.80;67.00
38325;DHT22;24126;52.672;13.622;2023-02-05T05:11:36;1.80;66.90
38325;DHT22;24126;52.672;13.622;2023-02-05T05:14:04;1.90;67.00
38325;DHT22;24126;52.672;13.622;2023-02-05T05:16:32;1.80;67.20
38325;DHT22;24126;52.672;13.622;2023-02-05T05:21:31;1.80;67.60
38325;DHT22;24126;52.672;13.622;2023-02-05T05:23:58;1.70;67.70
38325;DHT22;24126;52.672;13.622;2023-02-05T05:26:26;1.70;67.90
38325;DHT22;24126;52.672;13.622;2023-02-05T05:28:54;1.80;68.10
38325;DHT22;24126;52.672;13.622;2023-02-05T05:31:21;1.80;68.10
38325;DHT22;24126;52.672;13.622;2023-02-05T05:33:49;1.80;68.10
38325;DHT22;24126;52.672;13.622;2023-02-05T05:36:17;1.80;68.10
38325;DHT22;24126;52.672;13.622;2023-02-05T05:38:44;1.90;68.10
38325;DHT22;24126;52.672;13.622;2023-02-05T05:41:19;2.00;67.90
38325;DHT22;24126;52.672;13.622;2023-02-05T05:44:04;2.00;67.80
38325;DHT22;24126;52.672;13.622;2023-02-05T05:46:32;2.00;67.70
38325;DHT22;24126;52.672;13.622;2023-02-05T05:48:59;2.10;67.70
38325;DHT22;24126;52.672;13.622;2023-02-05T05:51:27;2.10;68.40
38325;DHT22;24126;52.672;13.622;2023-02-05T05:53:54;2.20;67.60
38325;DHT22;24126;52.672;13.622;2023-02-05T05:56:22;2.20;67.40
38325;DHT22;24126;52.672;13.622;2023-02-05T05:58:49;2.30;67.10
38325;DHT22;24126;52.672;13.622;2023-02-05T06:01:18;2.30;66.90
38325;DHT22;24126;52.672;13.622;2023-02-05T06:03:46;2.30;66.80
38325;DHT22;24126;52.672;13.622;2023-02-05T06:06:13;2.30;66.70
38325;DHT22;24126;52.672;13.622;2023-02-05T06:08:41;2.40;66.60
38325;DHT22;24126;52.672;13.622;2023-02-05T06:11:08;2.30;66.50
38325;DHT22;24126;52.672;13.622;2023-02-05T06:13:35;2.30;66.50
38325;DHT22;24126;52.672;13.622;2023-02-05T06:16:04;2.30;66.60
38325;DHT22;24126;52.672;13.622;2023-02-05T06:18:32;2.30;66.60
38325;DHT22;24126;52.672;13.622;2023-02-05T06:20:59;2.30;66.60
38325;DHT22;24126;52.672;13.622;2023-02-05T06:23:27;2.30;66.60
38325;DHT22;24126;52.672;13.622;2023-02-05T06:25:54;2.30;66.80
38325;DHT22;24126;52.672;13.622;2023-02-05T06:28:21;2.30;66.90
38325;DHT22;24126;52.672;13.622;2023-02-05T06:30:48;2.30;67.10
38325;DHT22;24126;52.672;13.622;2023-02-05T06:33:15;2.20;67.30
38325;DHT22;24126;52.672;13.622;2023-02-05T06:35:43;2.20;67.50
38325;DHT22;24126;52.672;13.622;2023-02-05T06:38:10;2.20;67.70
38325;DHT22;24126;52.672;13.622;2023-02-05T06:40:37;2.20;67.70
38325;DHT22;24126;52.672;13.622;2023-02-05T06:43:04;2.10;67.80
38325;DHT22;24126;52.672;13.622;2023-02-05T06:45:32;2.20;68.10
38325;DHT22;24126;52.672;13.622;2023-02-05T06:47:59;2.20;68.10
38325;DHT22;24126;52.672;13.622;2023-02-05T06:50:26;2.20;67.80
38325;DHT22;24126;52.672;13.622;2023-02-05T06:52:53;2.20;67.70
38325;DHT22;24126;52.672;13.622;2023-02-05T06:55:21;2.30;67.70
38325;DHT22;24126;52.672;13.622;2023-02-05T06:57:48;2.30;67.70
38325;DHT22;24126;52.672;13.622;2023-02-05T07:00:15;2.30;67.70
38325;DHT22;24126;52.672;13.622;2023-02-05T07:02:42;2.40;67.60
38325;DHT22;24126;52.672;13.622;2023-02-05T07:05:09;2.40;67.70
38325;DHT22;24126;52.672;13.622;2023-02-05T07:07:37;2.50;67.50
38325;DHT22;24126;52.672;13.622;2023-02-05T07:10:04;2.50;67.40
38325;DHT22;24126;52.672;13.622;2023-02-05T07:12:31;2.60;67.60
38325;DHT22;24126;52.672;13.622;2023-02-05T07:14:58;2.60;67.70
38325;DHT22;24126;52.672;13.622;2023-02-05T07:17:25;2.60;67.80
38325;DHT22;24126;52.672;13.622;2023-02-05T07:22:24;2.60;68.20
38325;DHT22;24126;52.672;13.622;2023-02-05T07:24:51;2.70;68.10
38325;DHT22;24126;52.672;13.622;2023-02-05T07:27:19;2.80;67.90
38325;DHT22;24126;52.672;13.622;2023-02-05T07:29:46;2.80;67.80
38325;DHT22;24126;52.672;13.622;2023-02-05T07:32:13;2.80;67.80
38325;DHT22;24126;52.672;13.622;2023-02-05T07:34:40;2.90;67.80
38325;DHT22;24126;52.672;13.622;2023-02-05T07:37:11;2.90;67.80
38325;DHT22;24126;52.672;13.622;2023-02-05T07:39:39;2.90;67.80
38325;DHT22;24126;52.672;13.622;2023-02-05T07:42:06;2.90;67.80
38325;DHT22;24126;52.672;13.622;2023-02-05T07:44:41;3.00;67.80
38325;DHT22;24126;52.672;13.622;2023-02-05T07:47:09;3.00;67.80
38325;DHT22;24126;52.672;13.622;2023-02-05T07:49:36;3.00;67.90
38325;DHT22;24126;52.672;13.622;2023-02-05T07:52:03;3.00;67.90
38325;DHT22;24126;52.672;13.622;2023-02-05T07:54:30;3.00;68.10
38325;DHT22;24126;52.672;13.622;2023-02-05T07:56:58;3.00;68.20
38325;DHT22;24126;52.672;13.622;2023-02-05T07:59:26;3.00;68.20
38325;DHT22;24126;52.672;13.622;2023-02-05T08:01:53;3.00;68.20
38325;DHT22;24126;52.672;13.622;2023-02-05T08:04:20;3.00;68.00
38325;DHT22;24126;52.672;13.622;2023-02-05T08:06:47;3.00;68.00
38325;DHT22;24126;52.672;13.622;2023-02-05T08:09:14;3.00;68.00
38325;DHT22;24126;52.672;13.622;2023-02-05T08:11:41;3.00;68.00
38325;DHT22;24126;52.672;13.622;2023-02-05T08:14:09;3.00;67.90
38325;DHT22;24126;52.672;13.622;2023-02-05T08:16:36;3.00;67.80
38325;DHT22;24126;52.672;13.622;2023-02-05T08:19:03;3.10;67.80
38325;DHT22;24126;52.672;13.622;2023-02-05T08:21:30;3.10;67.90
38325;DHT22;24126;52.672;13.622;2023-02-05T08:23:59;3.10;67.90
38325;DHT22;24126;52.672;13.622;2023-02-05T08:26:26;3.10;67.90
38325;DHT22;24126;52.672;13.622;2023-02-05T08:28:53;3.10;67.80
38325;DHT22;24126;52.672;13.622;2023-02-05T08:31:20;3.10;67.90
38325;DHT22;24126;52.672;13.622;2023-02-05T08:33:47;3.20;67.90
38325;DHT22;24126;52.672;13.622;2023-02-05T08:36:15;3.20;67.60
38325;DHT22;24126;52.672;13.622;2023-02-05T08:38:42;3.20;67.50
38325;DHT22;24126;52.672;13.622;2023-02-05T08:41:10;3.30;67.50
38325;DHT22;24126;52.672;13.622;2023-02-05T08:43:42;3.30;67.50
38325;DHT22;24126;52.672;13.622;2023-02-05T08:46:10;3.40;68.10
38325;DHT22;24126;52.672;13.622;2023-02-05T08:48:38;3.40;67.30
38325;DHT22;24126;52.672;13.622;2023-02-05T08:51:08;3.40;67.30
38325;DHT22;24126;52.672;13.622;2023-02-05T08:53:35;3.50;67.50
38325;DHT22;24126;52.672;13.622;2023-02-05T08:56:02;3.50;67.50
38325;DHT22;24126;52.672;13.622;2023-02-05T08:58:31;3.60;67.30
38325;DHT22;24126;52.672;13.622;2023-02-05T09:01:06;3.60;67.20
38325;DHT22;24126;52.672;13.622;2023-02-05T09:03:34;3.70;67.10
38325;DHT22;24126;52.672;13.622;2023-02-05T09:06:03;3.80;67.00
38325;DHT22;24126;52.672;13.622;2023-02-05T09:08:31;3.80;66.90
38325;DHT22;24126;52.672;13.622;2023-02-05T09:10:58;3.80;67.00
38325;DHT22;24126;52.672;13.622;2023-02-05T09:13:25;3.80;66.50
38325;DHT22;24126;52.672;13.622;2023-02-05T09:15:52;3.80;66.70
38325;DHT22;24126;52.672;13.622;2023-02-05T09:18:19;3.90;66.70
38325;DHT22;24126;52.672;13.622;2023-02-05T09:21:14;4.00;66.40
38325;DHT22;24126;52.672;13.622;2023-02-05T09:23:41;4.00;66.40
38325;DHT22;24126;52.672;13.622;2023-02-05T09:26:09;4.00;66.40
38325;DHT22;24126;52.672;13.622;2023-02-05T09:28:36;4.00;66.30
38325;DHT22;24126;52.672;13.622;2023-02-05T09:31:16;4.00;65.80
38325;DHT22;24126;52.672;13.622;2023-02-05T09:34:00;4.00;65.90
38325;DHT22;24126;52.672;13.622;2023-02-05T09:36:28;4.00;66.20
38325;DHT22;24126;52.672;13.622;2023-02-05T09:38:55;4.10;66.00
38325;DHT22;24126;52.672;13.622;2023-02-05T09:41:24;4.20;65.70
38325;DHT22;24126;52.672;13.622;2023-02-05T09:43:59;4.30;65.40
38325;DHT22;24126;52.672;13.622;2023-02-05T09:46:35;4.30;65.10
38325;DHT22;24126;52.672;13.622;2023-02-05T09:49:16;4.30;64.60
38325;DHT22;24126;52.672;13.622;2023-02-05T09:51:45;4.30;64.80
38325;DHT22;24126;52.672;13.622;2023-02-05T09:54:15;4.30;64.80
38325;DHT22;24126;52.672;13.622;2023-02-05T09:56:43;4.40;64.70
38325;DHT22;24126;52.672;13.622;2023-02-05T09:59:12;4.40;64.50
38325;DHT22;24126;52.672;13.622;2023-02-05T10:01:43;4.50;64.60
38325;DHT22;24126;52.672;13.622;2023-02-05T10:04:12;4.50;64.40
38325;DHT22;24126;52.672;13.622;2023-02-05T10:06:42;4.60;64.40
38325;DHT22;24126;52.672;13.622;2023-02-05T10:09:15;4.70;64.30
38325;DHT22;24126;52.672;13.622;2023-02-05T10:11:58;4.80;64.30
38325;DHT22;24126;52.672;13.622;2023-02-05T10:19:45;5.00;63.20
38325;DHT22;24126;52.672;13.622;2023-02-05T10:22:24;5.00;63.40
38325;DHT22;24126;52.672;13.622;2023-02-05T10:28:23;5.30;62.90
38325;DHT22;24126;52.672;13.622;2023-02-05T10:30:33;5.50;62.60
38325;DHT22;24126;52.672;13.622;2023-02-05T10:33:16;5.70;62.30
38325;DHT22;24126;52.672;13.622;2023-02-05T10:38:35;6.00;61.20
38325;DHT22;24126;52.672;13.622;2023-02-05T10:41:10;6.10;61.20
38325;DHT22;24126;52.672;13.622;2023-02-05T10:43:39;6.10;60.30
38325;DHT22;24126;52.672;13.622;2023-02-05T10:46:12;6.20;60.00
38325;DHT22;24126;52.672;13.622;2023-02-05T10:48:42;6.20;60.60
38325;DHT22;24126;52.672;13.622;2023-02-05T10:53:53;6.20;60.80
38325;DHT22;24126;52.672;13.622;2023-02-05T10:56:24;6.20;60.50
38325;DHT22;24126;52.672;13.622;2023-02-05T10:58:55;6.20;60.00
38325;DHT22;24126;52.672;13.622;2023-02-05T11:01:24;6.20;61.10
38325;DHT22;24126;52.672;13.622;2023-02-05T11:06:22;6.20;59.60
38325;DHT22;24126;52.672;13.622;2023-02-05T11:08:51;6.20;59.70
38325;DHT22;24126;52.672;13.622;2023-02-05T11:11:19;6.30;59.70
38325;DHT22;24126;52.672;13.622;2023-02-05T11:13:51;6.30;59.00
38325;DHT22;24126;52.672;13.622;2023-02-05T11:16:19;6.30;59.20
38325;DHT22;24126;52.672;13.622;2023-02-05T11:18:53;6.40;59.00
38325;DHT22;24126;52.672;13.622;2023-02-05T11:21:22;6.40;58.80
38325;DHT22;24126;52.672;13.622;2023-02-05T11:23:53;6.30;58.60
38325;DHT22;24126;52.672;13.622;2023-02-05T11:26:22;6.30;59.00
38325;DHT22;24126;52.672;13.622;2023-02-05T11:28:49;6.30;58.60
38325;DHT22;24126;52.672;13.622;2023-02-05T11:31:22;6.20;59.10
38325;DHT22;24126;52.672;13.622;2023-02-05T11:33:50;6.20;59.40
38325;DHT22;24126;52.672;13.622;2023-02-05T11:36:18;6.10;59.10
38325;DHT22;24126;52.672;13.622;2023-02-05T11:38:48;6.10;59.40
38325;DHT22;24126;52.672;13.622;2023-02-05T11:41:29;6.10;59.40
38325;DHT22;24126;52.672;13.622;2023-02-05T11:43:57;6.10;59.50
38325;DHT22;24126;52.672;13.622;2023-02-05T11:46:25;6.10;59.20
38325;DHT22;24126;52.672;13.622;2023-02-05T11:54:04;6.20;59.30
38325;DHT22;24126;52.672;13.622;2023-02-05T11:56:32;6.20;58.90
38325;DHT22;24126;52.672;13.622;2023-02-05T11:59:00;6.30;59.00
38325;DHT22;24126;52.672;13.622;2023-02-05T12:01:27;6.30;58.50
38325;DHT22;24126;52.672;13.622;2023-02-05T12:03:58;6.30;58.80
38325;DHT22;24126;52.672;13.622;2023-02-05T12:06:30;6.30;58.70
38325;DHT22;24126;52.672;13.622;2023-02-05T12:08:59;6.30;58.80
38325;DHT22;24126;52.672;13.622;2023-02-05T12:11:30;6.40;58.70
38325;DHT22;24126;52.672;13.622;2023-02-05T12:14:30;6.40;58.40
38325;DHT22;24126;52.672;13.622;2023-02-05T12:17:09;6.40;58.10
38325;DHT22;24126;52.672;13.622;2023-02-05T12:20:18;6.40;58.30
38325;DHT22;24126;52.672;13.622;2023-02-05T12:25:19;6.30;58.40
38325;DHT22;24126;52.672;13.622;2023-02-05T12:27:53;6.30;58.10
38325;DHT22;24126;52.672;13.622;2023-02-05T12:38:43;6.40;59.10
38325;DHT22;24126;52.672;13.622;2023-02-05T12:43:54;6.60;58.90
38325;DHT22;24126;52.672;13.622;2023-02-05T12:48:55;6.70;58.20
38325;DHT22;24126;52.672;13.622;2023-02-05T12:51:33;6.80;58.20
38325;DHT22;24126;52.672;13.622;2023-02-05T12:54:06;6.80;57.80
38325;DHT22;24126;52.672;13.622;2023-02-05T12:56:41;6.90;58.10
38325;DHT22;24126;52.672;13.622;2023-02-05T12:59:12;6.90;57.90
38325;DHT22;24126;52.672;13.622;2023-02-05T13:01:42;6.90;57.80
38325;DHT22;24126;52.672;13.622;2023-02-05T13:04:18;7.00;57.40
38325;DHT22;24126;52.672;13.622;2023-02-05T13:06:48;7.00;57.30
38325;DHT22;24126;52.672;13.622;2023-02-05T13:09:18;6.90;56.90
38325;DHT22;24126;52.672;13.622;2023-02-05T13:11:50;6.90;57.10
38325;DHT22;24126;52.672;13.622;2023-02-05T13:14:28;6.90;57.00
38325;DHT22;24126;52.672;13.622;2023-02-05T13:17:03;6.80;57.20
38325;DHT22;24126;52.672;13.622;2023-02-05T13:22:06;6.90;56.90
38325;DHT22;24126;52.672;13.622;2023-02-05T13:24:59;6.90;56.90
38325;DHT22;24126;52.672;13.622;2023-02-05T13:27:46;6.90;56.80
38325;DHT22;24126;52.672;13.622;2023-02-05T13:30:35;6.90;57.00
38325;DHT22;24126;52.672;13.622;2023-02-05T13:33:05;6.90;56.70
38325;DHT22;24126;52.672;13.622;2023-02-05T13:35:42;6.80;56.60
38325;DHT22;24126;52.672;13.622;2023-02-05T13:38:24;6.90;56.80
38325;DHT22;24126;52.672;13.622;2023-02-05T13:41:00;6.80;56.60
38325;DHT22;24126;52.672;13.622;2023-02-05T13:43:43;6.80;56.90
38325;DHT22;24126;52.672;13.622;2023-02-05T13:59:43;6.80;56.70
38325;DHT22;24126;52.672;13.622;2023-02-05T14:02:39;6.80;56.70
38325;DHT22;24126;52.672;13.622;2023-02-05T14:05:03;6.70;56.50
38325;DHT22;24126;52.672;13.622;2023-02-05T14:07:32;6.70;57.10
38325;DHT22;24126;52.672;13.622;2023-02-05T14:10:00;6.80;56.90
38325;DHT22;24126;52.672;13.622;2023-02-05T14:12:31;6.90;56.70
38325;DHT22;24126;52.672;13.622;2023-02-05T14:22:52;6.80;57.10
38325;DHT22;24126;52.672;13.622;2023-02-05T14:28:31;6.80;56.60
38325;DHT22;24126;52.672;13.622;2023-02-05T14:33:37;6.70;56.50
38325;DHT22;24126;52.672;13.622;2023-02-05T14:44:23;6.60;57.10
38325;DHT22;24126;52.672;13.622;2023-02-05T14:46:55;6.50;57.20
38325;DHT22;24126;52.672;13.622;2023-02-05T14:49:25;6.50;57.30
38325;DHT22;24126;52.672;13.622;2023-02-05T14:51:55;6.40;57.40
38325;DHT22;24126;52.672;13.622;2023-02-05T14:54:26;6.40;57.50
38325;DHT22;24126;52.672;13.622;2023-02-05T14:59:42;6.30;57.90
38325;DHT22;24126;52.672;13.622;2023-02-05T15:05:01;6.30;58.20
38325;DHT22;24126;52.672;13.622;2023-02-05T15:07:29;6.40;58.30
38325;DHT22;24126;52.672;13.622;2023-02-05T15:10:01;6.30;58.30
38325;DHT22;24126;52.672;13.622;2023-02-05T15:12:30;6.30;58.40
38325;DHT22;24126;52.672;13.622;2023-02-05T15:14:58;6.30;58.50
38325;DHT22;24126;52.672;13.622;2023-02-05T15:17:46;6.30;58.50
38325;DHT22;24126;52.672;13.622;2023-02-05T15:20:18;6.30;59.30
38325;DHT22;24126;52.672;13.622;2023-02-05T15:22:53;6.30;58.80
38325;DHT22;24126;52.672;13.622;2023-02-05T15:27:53;6.30;58.90
38325;DHT22;24126;52.672;13.622;2023-02-05T15:30:23;6.20;59.10
38325;DHT22;24126;52.672;13.622;2023-02-05T15:32:51;6.20;59.00
38325;DHT22;24126;52.672;13.622;2023-02-05T15:35:21;6.20;59.10
38325;DHT22;24126;52.672;13.622;2023-02-05T15:40:30;6.10;59.40
38325;DHT22;24126;52.672;13.622;2023-02-05T15:42:59;6.10;59.50
38325;DHT22;24126;52.672;13.622;2023-02-05T15:47:57;6.00;59.90
38325;DHT22;24126;52.672;13.622;2023-02-05T15:50:24;6.00;59.80
38325;DHT22;24126;52.672;13.622;2023-02-05T15:52:52;5.90;59.70
38325;DHT22;24126;52.672;13.622;2023-02-05T15:55:20;5.80;59.90
38325;DHT22;24126;52.672;13.622;2023-02-05T15:57:49;5.80;60.40
38325;DHT22;24126;52.672;13.622;2023-02-05T16:00:18;5.80;60.40
38325;DHT22;24126;52.672;13.622;2023-02-05T16:03:22;5.70;60.30
38325;DHT22;24126;52.672;13.622;2023-02-05T16:05:39;5.70;60.30
38325;DHT22;24126;52.672;13.622;2023-02-05T16:08:13;5.70;60.70
38325;DHT22;24126;52.672;13.622;2023-02-05T16:10:47;5.70;60.80
38325;DHT22;24126;52.672;13.622;2023-02-05T16:13:17;5.60;60.90
38325;DHT22;24126;52.672;13.622;2023-02-05T16:20:57;5.40;61.00
38325;DHT22;24126;52.672;13.622;2023-02-05T16:23:26;5.40;61.20
38325;DHT22;24126;52.672;13.622;2023-02-05T16:25:58;5.30;61.20
38325;DHT22;24126;52.672;13.622;2023-02-05T16:28:39;5.30;61.40
38325;DHT22;24126;52.672;13.622;2023-02-05T16:31:08;5.20;61.50
38325;DHT22;24126;52.672;13.622;2023-02-05T16:33:46;5.20;61.70
38325;DHT22;24126;52.672;13.622;2023-02-05T16:36:15;5.20;61.60
38325;DHT22;24126;52.672;13.622;2023-02-05T16:38:43;5.10;61.80
38325;DHT22;24126;52.672;13.622;2023-02-05T16:41:19;5.00;61.90
38325;DHT22;24126;52.672;13.622;2023-02-05T16:43:47;4.90;61.90
38325;DHT22;24126;52.672;13.622;2023-02-05T16:53:56;4.80;62.20
38325;DHT22;24126;52.672;13.622;2023-02-05T16:56:25;4.80;62.00
38325;DHT22;24126;52.672;13.622;2023-02-05T16:58:55;4.80;62.60
38325;DHT22;24126;52.672;13.622;2023-02-05T17:01:26;4.80;62.10
38325;DHT22;24126;52.672;13.622;2023-02-05T17:03:54;4.80;61.90
38325;DHT22;24126;52.672;13.622;2023-02-05T17:06:22;4.80;61.90
38325;DHT22;24126;52.672;13.622;2023-02-05T17:08:50;4.80;61.90
38325;DHT22;24126;52.672;13.622;2023-02-05T17:11:39;4.80;61.90
38325;DHT22;24126;52.672;13.622;2023-02-05T17:16:53;4.70;61.30
38325;DHT22;24126;52.672;13.622;2023-02-05T17:19:30;4.70;61.70
38325;DHT22;24126;52.672;13.622;2023-02-05T17:24:41;4.80;61.60
38325;DHT22;24126;52.672;13.622;2023-02-05T17:27:10;4.80;61.40
38325;DHT22;24126;52.672;13.622;2023-02-05T17:29:39;4.80;61.00
38325;DHT22;24126;52.672;13.622;2023-02-05T17:32:09;4.70;60.60
38325;DHT22;24126;52.672;13.622;2023-02-05T17:34:40;4.70;60.90
38325;DHT22;24126;52.672;13.622;2023-02-05T17:37:07;4.70;61.00
38325;DHT22;24126;52.672;13.622;2023-02-05T17:39:34;4.70;60.90
38325;DHT22;24126;52.672;13.622;2023-02-05T17:42:01;4.60;61.10
38325;DHT22;24126;52.672;13.622;2023-02-05T17:44:34;4.60;61.40
38325;DHT22;24126;52.672;13.622;2023-02-05T17:47:01;4.60;61.50
38325;DHT22;24126;52.672;13.622;2023-02-05T17:49:29;4.50;61.70
38325;DHT22;24126;52.672;13.622;2023-02-05T17:51:57;4.50;62.10
38325;DHT22;24126;52.672;13.622;2023-02-05T17:54:24;4.40;62.10
38325;DHT22;24126;52.672;13.622;2023-02-05T17:56:52;4.40;62.20
38325;DHT22;24126;52.672;13.622;2023-02-05T17:59:22;4.30;62.90
38325;DHT22;24126;52.672;13.622;2023-02-05T18:01:50;4.30;62.20
38325;DHT22;24126;52.672;13.622;2023-02-05T18:04:17;4.30;62.20
38325;DHT22;24126;52.672;13.622;2023-02-05T18:06:45;4.20;62.30
38325;DHT22;24126;52.672;13.622;2023-02-05T18:09:13;4.20;62.60
38325;DHT22;24126;52.672;13.622;2023-02-05T18:11:41;4.20;62.80
38325;DHT22;24126;52.672;13.622;2023-02-05T18:14:08;4.10;62.80